sensor_id;sensor_type;location;lat;lon;timestamp;temperature;humidity
37910;DHT22;23741;49.446;8.754;2023-07-13T00:00:24;23.40;51.00
37910;DHT22;23741;49.446;8.754;2023-07-13T00:02:26;23.40;51.30
37910;DHT22;23741;49.446;8.754;2023-07-13T00:04:28;23.30;51.50
37910;DHT22;23741;49.446;8.754;2023-07-13T00:06:34;23.30;51.40
37910;DHT22;23741;49.446;8.754;2023-07-13T00:08:36;23.30;51.30
37910;DHT22;23741;49.446;8.754;2023-07-13T00:10:41;23.30;51.50
37910;DHT22;23741;49.446;8.754;2023-07-13T00:12:44;23.30;52.00
37910;DHT22;23741;49.446;8.754;2023-07-13T00:14:46;23.20;51.70
37910;DHT22;23741;49.446;8.754;2023-07-13T00:16:47;23.20;51.80
37910;DHT22;23741;49.446;8.754;2023-07-13T00:18:50;23.10;51.80
37910;DHT22;23741;49.446;8.754;2023-07-13T00:20:51;23.10;52.20
37910;DHT22;23741;49.446;8.754;2023-07-13T00:22:53;23.10;52.00
37910;DHT22;23741;49.446;8.754;2023-07-13T00:24:55;23.10;52.00
37910;DHT22;23741;49.446;8.754;2023-07-13T00:26:58;23.10;52.40
37910;DHT22;23741;49.446;8.754;2023-07-13T00:28:59;23.10;52.30
37910;DHT22;23741;49.446;8.754;2023-07-13T00:31:03;23.00;52.10
37910;DHT22;23741;49.446;8.754;2023-07-13T00:33:08;23.10;52.50
37910;DHT22;23741;49.446;8.754;2023-07-13T00:35:19;23.00;52.40
37910;DHT22;23741;49.446;8.754;2023-07-13T00:37:20;23.10;52.60
37910;DHT22;23741;49.446;8.754;2023-07-13T00:39:22;23.10;52.20
37910;DHT22;23741;49.446;8.754;2023-07-13T00:41:24;23.00;52.00
37910;DHT22;23741;49.446;8.754;2023-07-13T00:43:28;23.00;52.50
37910;DHT22;23741;49.446;8.754;2023-07-13T00:47:32;23.00;52.80
37910;DHT22;23741;49.446;8.754;2023-07-13T00:49:35;23.00;52.60
37910;DHT22;23741;49.446;8.754;2023-07-13T00:51:54;23.00;52.60
37910;DHT22;23741;49.446;8.754;2023-07-13T00:53:59;23.00;52.30
37910;DHT22;23741;49.446;8.754;2023-07-13T00:56:03;22.90;52.10
37910;DHT22;23741;49.446;8.754;2023-07-13T00:58:05;22.90;52.40
37910;DHT22;23741;49.446;8.754;2023-07-13T01:00:08;22.90;52.80
37910;DHT22;23741;49.446;8.754;2023-07-13T01:02:10;23.00;52.80
37910;DHT22;23741;49.446;8.754;2023-07-13T01:04:13;22.90;52.60
37910;DHT22;23741;49.446;8.754;2023-07-13T01:06:16;22.90;52.10
37910;DHT22;23741;49.446;8.754;2023-07-13T01:08:20;22.80;52.10
37910;DHT22;23741;49.446;8.754;2023-07-13T01:10:23;22.80;52.30
37910;DHT22;23741;49.446;8.754;2023-07-13T01:12:26;22.80;52.10
37910;DHT22;23741;49.446;8.754;2023-07-13T01:14:28;22.80;52.30
37910;DHT22;23741;49.446;8.754;2023-07-13T01:16:35;22.80;52.20
37910;DHT22;23741;49.446;8.754;2023-07-13T01:18:39;22.70;52.30
37910;DHT22;23741;49.446;8.754;2023-07-13T01:20:46;22.70;52.30
37910;DHT22;23741;49.446;8.754;2023-07-13T01:22:49;22.70;52.20
37910;DHT22;23741;49.446;8.754;2023-07-13T01:24:51;22.60;52.10
37910;DHT22;23741;49.446;8.754;2023-07-13T01:26:52;22.50;52.20
37910;DHT22;23741;49.446;8.754;2023-07-13T01:28:54;22.50;52.30
37910;DHT22;23741;49.446;8.754;2023-07-13T01:30:58;22.50;52.30
37910;DHT22;23741;49.446;8.754;2023-07-13T01:33:01;22.40;52.50
37910;DHT22;23741;49.446;8.754;2023-07-13T01:35:04;22.40;52.30
37910;DHT22;23741;49.446;8.754;2023-07-13T01:37:05;22.30;52.40
37910;DHT22;23741;49.446;8.754;2023-07-13T01:39:07;22.30;52.70
37910;DHT22;23741;49.446;8.754;2023-07-13T01:41:09;22.20;53.00
37910;DHT22;23741;49.446;8.754;2023-07-13T01:43:11;22.20;53.30
37910;DHT22;23741;49.446;8.754;2023-07-13T01:45:13;22.10;52.90
37910;DHT22;23741;49.446;8.754;2023-07-13T01:47:15;22.10;52.90
37910;DHT22;23741;49.446;8.754;2023-07-13T01:49:17;22.10;53.10
37910;DHT22;23741;49.446;8.754;2023-07-13T01:51:19;22.00;53.00
37910;DHT22;23741;49.446;8.754;2023-07-13T01:53:22;22.00;53.60
37910;DHT22;23741;49.446;8.754;2023-07-13T01:55:23;22.00;53.50
37910;DHT22;23741;49.446;8.754;2023-07-13T01:57:25;22.00;53.20
37910;DHT22;23741;49.446;8.754;2023-07-13T01:59:27;21.90;53.10
37910;DHT22;23741;49.446;8.754;2023-07-13T02:01:29;21.90;53.30
37910;DHT22;23741;49.446;8.754;2023-07-13T02:03:31;21.80;53.50
37910;DHT22;23741;49.446;8.754;2023-07-13T02:05:33;21.80;53.60
37910;DHT22;23741;49.446;8.754;2023-07-13T02:07:35;21.80;53.60
37910;DHT22;23741;49.446;8.754;2023-07-13T02:09:38;21.70;53.50
37910;DHT22;23741;49.446;8.754;2023-07-13T02:11:39;21.70;53.50
37910;DHT22;23741;49.446;8.754;2023-07-13T02:13:41;21.60;53.50
37910;DHT22;23741;49.446;8.754;2023-07-13T02:15:43;21.60;53.80
37910;DHT22;23741;49.446;8.754;2023-07-13T02:17:45;21.60;53.80
37910;DHT22;23741;49.446;8.754;2023-07-13T02:19:47;21.60;53.80
37910;DHT22;23741;49.446;8.754;2023-07-13T02:21:49;21.50;54.00
37910;DHT22;23741;49.446;8.754;2023-07-13T02:23:51;21.50;53.90
37910;DHT22;23741;49.446;8.754;2023-07-13T02:25:58;21.50;54.30
37910;DHT22;23741;49.446;8.754;2023-07-13T02:28:01;21.40;54.60
37910;DHT22;23741;49.446;8.754;2023-07-13T02:30:03;21.40;54.20
37910;DHT22;23741;49.446;8.754;2023-07-13T02:32:06;21.40;54.20
37910;DHT22;23741;49.446;8.754;2023-07-13T02:34:08;21.30;54.50
37910;DHT22;23741;49.446;8.754;2023-07-13T02:36:12;21.30;54.40
37910;DHT22;23741;49.446;8.754;2023-07-13T02:38:15;21.30;54.50
37910;DHT22;23741;49.446;8.754;2023-07-13T02:40:17;21.30;54.50
37910;DHT22;23741;49.446;8.754;2023-07-13T02:42:19;21.20;54.40
37910;DHT22;23741;49.446;8.754;2023-07-13T02:44:21;21.20;54.20
37910;DHT22;23741;49.446;8.754;2023-07-13T02:46:23;21.20;54.20
37910;DHT22;23741;49.446;8.754;2023-07-13T02:48:25;21.20;54.50
37910;DHT22;23741;49.446;8.754;2023-07-13T02:50:27;21.20;54.70
37910;DHT22;23741;49.446;8.754;2023-07-13T02:52:29;21.20;54.10
37910;DHT22;23741;49.446;8.754;2023-07-13T02:54:31;21.10;54.10
37910;DHT22;23741;49.446;8.754;2023-07-13T02:56:33;21.10;54.30
37910;DHT22;23741;49.446;8.754;2023-07-13T02:58:36;21.10;54.40
37910;DHT22;23741;49.446;8.754;2023-07-13T03:00:40;21.00;54.40
37910;DHT22;23741;49.446;8.754;2023-07-13T03:02:42;21.10;54.50
37910;DHT22;23741;49.446;8.754;2023-07-13T03:04:45;21.00;54.50
37910;DHT22;23741;49.446;8.754;2023-07-13T03:06:46;21.00;54.30
37910;DHT22;23741;49.446;8.754;2023-07-13T03:08:49;21.00;54.20
37910;DHT22;23741;49.446;8.754;2023-07-13T03:11:10;21.00;54.10
37910;DHT22;23741;49.446;8.754;2023-07-13T03:13:15;21.00;55.20
37910;DHT22;23741;49.446;8.754;2023-07-13T03:15:17;20.90;54.40
37910;DHT22;23741;49.446;8.754;2023-07-13T03:17:20;20.90;54.40
37910;DHT22;23741;49.446;8.754;2023-07-13T03:19:23;20.90;54.30
37910;DHT22;23741;49.446;8.754;2023-07-13T03:21:26;20.90;54.40
37910;DHT22;23741;49.446;8.754;2023-07-13T03:23:28;20.90;54.50
37910;DHT22;23741;49.446;8.754;2023-07-13T03:25:30;20.90;54.30
37910;DHT22;23741;49.446;8.754;2023-07-13T03:27:32;20.80;54.60
37910;DHT22;23741;49.446;8.754;2023-07-13T03:29:34;20.90;55.00
37910;DHT22;23741;49.446;8.754;2023-07-13T03:31:37;20.80;54.90
37910;DHT22;23741;49.446;8.754;2023-07-13T03:33:40;20.80;54.60
37910;DHT22;23741;49.446;8.754;2023-07-13T03:35:41;20.80;54.40
37910;DHT22;23741;49.446;8.754;2023-07-13T03:37:44;20.80;54.50
37910;DHT22;23741;49.446;8.754;2023-07-13T03:39:51;20.80;54.60
37910;DHT22;23741;49.446;8.754;2023-07-13T03:41:54;20.70;54.60
37910;DHT22;23741;49.446;8.754;2023-07-13T03:43:57;20.80;54.80
37910;DHT22;23741;49.446;8.754;2023-07-13T03:46:01;20.70;54.40
37910;DHT22;23741;49.446;8.754;2023-07-13T03:48:03;20.70;55.00
37910;DHT22;23741;49.446;8.754;2023-07-13T03:50:05;20.70;55.20
37910;DHT22;23741;49.446;8.754;2023-07-13T03:52:07;20.70;55.20
37910;DHT22;23741;49.446;8.754;2023-07-13T03:54:09;20.70;55.50
37910;DHT22;23741;49.446;8.754;2023-07-13T03:56:12;20.70;55.50
37910;DHT22;23741;49.446;8.754;2023-07-13T04:00:27;20.70;56.30
37910;DHT22;23741;49.446;8.754;2023-07-13T04:02:29;20.70;56.20
37910;DHT22;23741;49.446;8.754;2023-07-13T04:04:31;20.70;56.10
37910;DHT22;23741;49.446;8.754;2023-07-13T04:06:33;20.70;55.70
37910;DHT22;23741;49.446;8.754;2023-07-13T04:08:36;20.70;56.20
37910;DHT22;23741;49.446;8.754;2023-07-13T04:10:39;20.70;56.30
37910;DHT22;23741;49.446;8.754;2023-07-13T04:12:41;20.70;56.00
37910;DHT22;23741;49.446;8.754;2023-07-13T04:14:43;20.70;56.10
37910;DHT22;23741;49.446;8.754;2023-07-13T04:16:45;20.70;55.90
37910;DHT22;23741;49.446;8.754;2023-07-13T04:18:48;20.70;56.30
37910;DHT22;23741;49.446;8.754;2023-07-13T04:20:50;20.70;56.20
37910;DHT22;23741;49.446;8.754;2023-07-13T04:22:52;20.70;56.40
37910;DHT22;23741;49.446;8.754;2023-07-13T04:24:57;20.60;56.40
37910;DHT22;23741;49.446;8.754;2023-07-13T04:26:59;20.70;56.30
37910;DHT22;23741;49.446;8.754;2023-07-13T04:29:02;20.60;56.30
37910;DHT22;23741;49.446;8.754;2023-07-13T04:31:05;20.60;56.40
37910;DHT22;23741;49.446;8.754;2023-07-13T04:33:07;20.60;56.50
37910;DHT22;23741;49.446;8.754;2023-07-13T04:35:10;20.60;56.40
37910;DHT22;23741;49.446;8.754;2023-07-13T04:37:12;20.60;56.60
37910;DHT22;23741;49.446;8.754;2023-07-13T04:39:14;20.60;56.70
37910;DHT22;23741;49.446;8.754;2023-07-13T04:41:15;20.60;56.80
37910;DHT22;23741;49.446;8.754;2023-07-13T04:43:18;20.50;56.90
37910;DHT22;23741;49.446;8.754;2023-07-13T04:45:20;20.50;57.00
37910;DHT22;23741;49.446;8.754;2023-07-13T04:47:22;20.60;57.20
37910;DHT22;23741;49.446;8.754;2023-07-13T04:49:24;20.50;56.70
37910;DHT22;23741;49.446;8.754;2023-07-13T04:51:26;20.50;57.00
37910;DHT22;23741;49.446;8.754;2023-07-13T04:53:28;20.50;57.20
37910;DHT22;23741;49.446;8.754;2023-07-13T04:55:31;20.50;56.90
37910;DHT22;23741;49.446;8.754;2023-07-13T04:57:33;20.50;57.10
37910;DHT22;23741;49.446;8.754;2023-07-13T04:59:35;20.50;57.30
37910;DHT22;23741;49.446;8.754;2023-07-13T05:01:37;20.50;57.40
37910;DHT22;23741;49.446;8.754;2023-07-13T05:03:38;20.50;57.20
37910;DHT22;23741;49.446;8.754;2023-07-13T05:05:40;20.50;57.30
37910;DHT22;23741;49.446;8.754;2023-07-13T05:07:42;20.50;57.20
37910;DHT22;23741;49.446;8.754;2023-07-13T05:09:46;20.50;57.40
37910;DHT22;23741;49.446;8.754;2023-07-13T05:11:47;20.50;57.50
37910;DHT22;23741;49.446;8.754;2023-07-13T05:13:49;20.50;57.50
37910;DHT22;23741;49.446;8.754;2023-07-13T05:15:58;20.50;57.70
37910;DHT22;23741;49.446;8.754;2023-07-13T05:18:01;20.50;57.70
37910;DHT22;23741;49.446;8.754;2023-07-13T05:20:03;20.50;57.70
37910;DHT22;23741;49.446;8.754;2023-07-13T05:22:05;20.50;57.50
37910;DHT22;23741;49.446;8.754;2023-07-13T05:24:07;20.50;57.70
37910;DHT22;23741;49.446;8.754;2023-07-13T05:26:25;20.50;57.80
37910;DHT22;23741;49.446;8.754;2023-07-13T05:28:27;20.50;57.90
37910;DHT22;23741;49.446;8.754;2023-07-13T05:30:31;20.50;57.80
37910;DHT22;23741;49.446;8.754;2023-07-13T05:32:33;20.60;57.50
37910;DHT22;23741;49.446;8.754;2023-07-13T05:34:35;20.60;57.70
37910;DHT22;23741;49.446;8.754;2023-07-13T05:36:36;20.60;57.50
37910;DHT22;23741;49.446;8.754;2023-07-13T05:38:38;20.60;57.70
37910;DHT22;23741;49.446;8.754;2023-07-13T05:40:45;20.70;57.80
37910;DHT22;23741;49.446;8.754;2023-07-13T05:42:47;20.70;57.30
37910;DHT22;23741;49.446;8.754;2023-07-13T05:44:49;20.70;57.00
37910;DHT22;23741;49.446;8.754;2023-07-13T05:46:51;20.80;56.30
37910;DHT22;23741;49.446;8.754;2023-07-13T05:48:53;20.80;56.40
37910;DHT22;23741;49.446;8.754;2023-07-13T05:50:54;20.90;56.50
37910;DHT22;23741;49.446;8.754;2023-07-13T05:52:56;20.90;56.70
37910;DHT22;23741;49.446;8.754;2023-07-13T05:54:58;20.90;56.50
37910;DHT22;23741;49.446;8.754;2023-07-13T05:57:00;21.00;56.20
37910;DHT22;23741;49.446;8.754;2023-07-13T05:59:02;21.00;55.70
37910;DHT22;23741;49.446;8.754;2023-07-13T06:01:06;21.10;55.80
37910;DHT22;23741;49.446;8.754;2023-07-13T06:03:10;21.10;55.50
37910;DHT22;23741;49.446;8.754;2023-07-13T06:05:12;21.10;54.70
37910;DHT22;23741;49.446;8.754;2023-07-13T06:07:14;21.20;54.10
37910;DHT22;23741;49.446;8.754;2023-07-13T06:09:16;21.20;54.10
37910;DHT22;23741;49.446;8.754;2023-07-13T06:11:21;21.30;55.00
37910;DHT22;23741;49.446;8.754;2023-07-13T06:13:23;21.30;55.00
37910;DHT22;23741;49.446;8.754;2023-07-13T06:15:25;21.40;54.90
37910;DHT22;23741;49.446;8.754;2023-07-13T06:17:27;21.40;54.80
37910;DHT22;23741;49.446;8.754;2023-07-13T06:19:29;21.50;55.30
37910;DHT22;23741;49.446;8.754;2023-07-13T06:21:31;21.50;55.00
37910;DHT22;23741;49.446;8.754;2023-07-13T06:23:32;21.50;54.50
37910;DHT22;23741;49.446;8.754;2023-07-13T06:25:34;21.60;54.70
37910;DHT22;23741;49.446;8.754;2023-07-13T06:27:36;21.60;54.60
37910;DHT22;23741;49.446;8.754;2023-07-13T06:29:38;21.60;54.30
37910;DHT22;23741;49.446;8.754;2023-07-13T06:31:41;21.70;54.80
37910;DHT22;23741;49.446;8.754;2023-07-13T06:33:44;21.70;54.70
37910;DHT22;23741;49.446;8.754;2023-07-13T06:35:46;21.80;54.90
37910;DHT22;23741;49.446;8.754;2023-07-13T06:37:48;21.80;54.70
37910;DHT22;23741;49.446;8.754;2023-07-13T06:39:49;21.80;54.70
37910;DHT22;23741;49.446;8.754;2023-07-13T06:41:51;21.80;54.60
37910;DHT22;23741;49.446;8.754;2023-07-13T06:43:53;21.80;54.20
37910;DHT22;23741;49.446;8.754;2023-07-13T06:45:56;21.90;54.60
37910;DHT22;23741;49.446;8.754;2023-07-13T06:47:57;21.90;54.70
37910;DHT22;23741;49.446;8.754;2023-07-13T06:50:00;21.90;54.60
37910;DHT22;23741;49.446;8.754;2023-07-13T06:52:03;21.90;54.70
37910;DHT22;23741;49.446;8.754;2023-07-13T06:54:05;21.90;54.40
37910;DHT22;23741;49.446;8.754;2023-07-13T06:56:07;22.00;54.40
37910;DHT22;23741;49.446;8.754;2023-07-13T06:58:09;22.00;54.00
37910;DHT22;23741;49.446;8.754;2023-07-13T07:00:11;22.00;53.70
37910;DHT22;23741;49.446;8.754;2023-07-13T07:02:13;22.00;53.40
37910;DHT22;23741;49.446;8.754;2023-07-13T07:04:15;22.00;53.90
37910;DHT22;23741;49.446;8.754;2023-07-13T07:06:19;22.00;54.10
37910;DHT22;23741;49.446;8.754;2023-07-13T07:08:21;22.10;53.80
37910;DHT22;23741;49.446;8.754;2023-07-13T07:10:23;22.10;52.70
37910;DHT22;23741;49.446;8.754;2023-07-13T07:12:25;22.10;52.70
37910;DHT22;23741;49.446;8.754;2023-07-13T07:14:27;22.20;53.20
37910;DHT22;23741;49.446;8.754;2023-07-13T07:16:28;22.20;53.20
37910;DHT22;23741;49.446;8.754;2023-07-13T07:18:30;22.20;53.20
37910;DHT22;23741;49.446;8.754;2023-07-13T07:20:32;22.30;52.80
37910;DHT22;23741;49.446;8.754;2023-07-13T07:22:34;22.30;52.40
37910;DHT22;23741;49.446;8.754;2023-07-13T07:24:36;22.30;53.00
37910;DHT22;23741;49.446;8.754;2023-07-13T07:26:38;22.30;52.40
37910;DHT22;23741;49.446;8.754;2023-07-13T07:28:43;22.40;52.30
37910;DHT22;23741;49.446;8.754;2023-07-13T07:30:52;22.40;52.30
37910;DHT22;23741;49.446;8.754;2023-07-13T07:32:57;22.40;52.20
37910;DHT22;23741;49.446;8.754;2023-07-13T07:35:00;22.40;52.00
37910;DHT22;23741;49.446;8.754;2023-07-13T07:37:03;22.50;52.30
37910;DHT22;23741;49.446;8.754;2023-07-13T07:39:07;22.50;52.00
37910;DHT22;23741;49.446;8.754;2023-07-13T07:41:10;22.50;51.20
37910;DHT22;23741;49.446;8.754;2023-07-13T07:43:15;22.50;51.10
37910;DHT22;23741;49.446;8.754;2023-07-13T07:45:17;22.60;51.70
37910;DHT22;23741;49.446;8.754;2023-07-13T07:47:22;22.60;51.70
37910;DHT22;23741;49.446;8.754;2023-07-13T07:49:25;22.60;51.40
37910;DHT22;23741;49.446;8.754;2023-07-13T07:51:27;22.70;52.30
37910;DHT22;23741;49.446;8.754;2023-07-13T07:53:29;22.70;51.60
37910;DHT22;23741;49.446;8.754;2023-07-13T07:55:34;22.70;52.10
37910;DHT22;23741;49.446;8.754;2023-07-13T07:57:39;22.80;51.50
37910;DHT22;23741;49.446;8.754;2023-07-13T07:59:44;22.80;50.90
37910;DHT22;23741;49.446;8.754;2023-07-13T08:01:51;22.80;50.80
37910;DHT22;23741;49.446;8.754;2023-07-13T08:03:56;22.80;50.50
37910;DHT22;23741;49.446;8.754;2023-07-13T08:06:01;22.90;51.00
37910;DHT22;23741;49.446;8.754;2023-07-13T08:08:23;22.90;50.70
37910;DHT22;23741;49.446;8.754;2023-07-13T08:10:25;23.00;50.30
37910;DHT22;23741;49.446;8.754;2023-07-13T08:12:27;23.00;51.00
37910;DHT22;23741;49.446;8.754;2023-07-13T08:14:32;23.00;50.50
37910;DHT22;23741;49.446;8.754;2023-07-13T08:16:52;23.10;50.30
37910;DHT22;23741;49.446;8.754;2023-07-13T08:18:55;23.10;49.70
37910;DHT22;23741;49.446;8.754;2023-07-13T08:20:57;23.10;49.60
37910;DHT22;23741;49.446;8.754;2023-07-13T08:23:00;23.20;49.50
37910;DHT22;23741;49.446;8.754;2023-07-13T08:25:02;23.20;49.70
37910;DHT22;23741;49.446;8.754;2023-07-13T08:27:04;23.30;49.90
37910;DHT22;23741;49.446;8.754;2023-07-13T08:29:06;23.30;49.10
37910;DHT22;23741;49.446;8.754;2023-07-13T08:31:08;23.40;48.90
37910;DHT22;23741;49.446;8.754;2023-07-13T08:33:11;23.40;48.40
37910;DHT22;23741;49.446;8.754;2023-07-13T08:35:12;23.40;48.80
37910;DHT22;23741;49.446;8.754;2023-07-13T08:37:16;23.40;49.10
37910;DHT22;23741;49.446;8.754;2023-07-13T08:39:18;23.40;48.40
37910;DHT22;23741;49.446;8.754;2023-07-13T08:41:20;23.40;47.80
37910;DHT22;23741;49.446;8.754;2023-07-13T08:43:33;23.50;48.60
37910;DHT22;23741;49.446;8.754;2023-07-13T08:47:41;23.50;48.60
37910;DHT22;23741;49.446;8.754;2023-07-13T08:49:44;23.60;48.60
37910;DHT22;23741;49.446;8.754;2023-07-13T08:51:58;23.60;48.90
37910;DHT22;23741;49.446;8.754;2023-07-13T08:54:04;23.60;48.60
37910;DHT22;23741;49.446;8.754;2023-07-13T08:56:29;23.70;48.10
37910;DHT22;23741;49.446;8.754;2023-07-13T08:58:32;23.70;48.50
37910;DHT22;23741;49.446;8.754;2023-07-13T09:02:56;23.70;48.40
37910;DHT22;23741;49.446;8.754;2023-07-13T09:05:02;23.80;48.70
37910;DHT22;23741;49.446;8.754;2023-07-13T09:07:40;23.80;48.40
37910;DHT22;23741;49.446;8.754;2023-07-13T09:12:09;23.90;48.00
37910;DHT22;23741;49.446;8.754;2023-07-13T09:14:45;23.90;47.40
37910;DHT22;23741;49.446;8.754;2023-07-13T09:16:49;24.00;47.30
37910;DHT22;23741;49.446;8.754;2023-07-13T09:18:58;24.00;47.40
37910;DHT22;23741;49.446;8.754;2023-07-13T09:21:17;24.00;47.70
37910;DHT22;23741;49.446;8.754;2023-07-13T09:23:23;24.10;47.20
37910;DHT22;23741;49.446;8.754;2023-07-13T09:25:34;24.10;47.10
37910;DHT22;23741;49.446;8.754;2023-07-13T09:27:41;24.10;46.90
37910;DHT22;23741;49.446;8.754;2023-07-13T09:30:11;24.20;47.70
37910;DHT22;23741;49.446;8.754;2023-07-13T09:32:18;24.20;47.40
37910;DHT22;23741;49.446;8.754;2023-07-13T09:34:23;24.20;47.60
37910;DHT22;23741;49.446;8.754;2023-07-13T09:36:31;24.30;48.00
37910;DHT22;23741;49.446;8.754;2023-07-13T09:38:33;24.30;47.90
37910;DHT22;23741;49.446;8.754;2023-07-13T09:42:45;24.40;46.80
37910;DHT22;23741;49.446;8.754;2023-07-13T09:44:54;24.50;46.70
37910;DHT22;23741;49.446;8.754;2023-07-13T09:46:57;24.50;46.30
37910;DHT22;23741;49.446;8.754;2023-07-13T09:48:59;24.60;47.00
37910;DHT22;23741;49.446;8.754;2023-07-13T09:51:13;24.60;46.30
37910;DHT22;23741;49.446;8.754;2023-07-13T09:53:18;24.70;45.80
37910;DHT22;23741;49.446;8.754;2023-07-13T09:55:32;24.70;46.40
37910;DHT22;23741;49.446;8.754;2023-07-13T09:57:36;24.80;46.40
37910;DHT22;23741;49.446;8.754;2023-07-13T09:59:54;24.90;46.50
37910;DHT22;23741;49.446;8.754;2023-07-13T10:01:58;24.90;46.30
37910;DHT22;23741;49.446;8.754;2023-07-13T10:04:00;24.90;46.30
37910;DHT22;23741;49.446;8.754;2023-07-13T10:06:17;25.00;46.40
37910;DHT22;23741;49.446;8.754;2023-07-13T10:10:25;25.10;45.90
37910;DHT22;23741;49.446;8.754;2023-07-13T10:12:28;25.20;45.70
37910;DHT22;23741;49.446;8.754;2023-07-13T10:14:31;25.20;46.20
37910;DHT22;23741;49.446;8.754;2023-07-13T10:16:34;25.20;46.00
37910;DHT22;23741;49.446;8.754;2023-07-13T10:19:03;25.30;45.70
37910;DHT22;23741;49.446;8.754;2023-07-13T10:21:19;25.40;45.80
37910;DHT22;23741;49.446;8.754;2023-07-13T10:23:36;25.40;45.60
37910;DHT22;23741;49.446;8.754;2023-07-13T10:25:41;25.50;45.70
37910;DHT22;23741;49.446;8.754;2023-07-13T10:27:45;25.50;45.80
37910;DHT22;23741;49.446;8.754;2023-07-13T10:32:01;25.70;45.70
37910;DHT22;23741;49.446;8.754;2023-07-13T10:34:04;25.70;45.60
37910;DHT22;23741;49.446;8.754;2023-07-13T10:36:44;25.80;45.00
37910;DHT22;23741;49.446;8.754;2023-07-13T10:38:48;25.80;45.70
37910;DHT22;23741;49.446;8.754;2023-07-13T10:41:03;25.90;45.10
37910;DHT22;23741;49.446;8.754;2023-07-13T10:43:20;26.00;44.60
37910;DHT22;23741;49.446;8.754;2023-07-13T10:45:24;26.10;44.20
37910;DHT22;23741;49.446;8.754;2023-07-13T10:47:28;26.10;44.40
37910;DHT22;23741;49.446;8.754;2023-07-13T10:49:31;26.10;44.70
37910;DHT22;23741;49.446;8.754;2023-07-13T10:51:34;26.20;44.50
37910;DHT22;23741;49.446;8.754;2023-07-13T10:53:38;26.30;45.00
37910;DHT22;23741;49.446;8.754;2023-07-13T10:57:53;26.40;43.40
37910;DHT22;23741;49.446;8.754;2023-07-13T11:00:14;26.50;43.80
37910;DHT22;23741;49.446;8.754;2023-07-13T11:02:27;26.50;42.70
37910;DHT22;23741;49.446;8.754;2023-07-13T11:04:40;26.50;43.30
37910;DHT22;23741;49.446;8.754;2023-07-13T11:06:43;26.50;42.70
37910;DHT22;23741;49.446;8.754;2023-07-13T11:11:01;26.50;43.20
37910;DHT22;23741;49.446;8.754;2023-07-13T11:13:03;26.50;43.30
37910;DHT22;23741;49.446;8.754;2023-07-13T11:15:11;26.60;42.90
37910;DHT22;23741;49.446;8.754;2023-07-13T11:19:39;26.60;44.50
37910;DHT22;23741;49.446;8.754;2023-07-13T11:24:18;26.60;43.00
37910;DHT22;23741;49.446;8.754;2023-07-13T11:28:49;26.70;43.40
37910;DHT22;23741;49.446;8.754;2023-07-13T11:35:23;26.80;42.50
37910;DHT22;23741;49.446;8.754;2023-07-13T11:37:29;26.80;42.10
37910;DHT22;23741;49.446;8.754;2023-07-13T11:39:37;26.90;42.20
37910;DHT22;23741;49.446;8.754;2023-07-13T11:41:55;27.00;41.80
37910;DHT22;23741;49.446;8.754;2023-07-13T11:46:20;27.10;40.60
37910;DHT22;23741;49.446;8.754;2023-07-13T11:48:28;27.20;40.60
37910;DHT22;23741;49.446;8.754;2023-07-13T11:50:33;27.30;40.20
37910;DHT22;23741;49.446;8.754;2023-07-13T11:52:36;27.40;41.00
37910;DHT22;23741;49.446;8.754;2023-07-13T11:55:00;27.50;40.60
37910;DHT22;23741;49.446;8.754;2023-07-13T11:57:29;27.60;39.70
37910;DHT22;23741;49.446;8.754;2023-07-13T11:59:34;27.70;40.40
37910;DHT22;23741;49.446;8.754;2023-07-13T12:01:46;27.80;40.50
37910;DHT22;23741;49.446;8.754;2023-07-13T12:03:51;27.90;39.90
37910;DHT22;23741;49.446;8.754;2023-07-13T12:06:00;28.00;40.80
37910;DHT22;23741;49.446;8.754;2023-07-13T12:08:10;28.10;40.00
37910;DHT22;23741;49.446;8.754;2023-07-13T12:10:27;28.20;40.40
37910;DHT22;23741;49.446;8.754;2023-07-13T12:12:34;28.30;40.10
37910;DHT22;23741;49.446;8.754;2023-07-13T12:14:36;28.40;39.60
37910;DHT22;23741;49.446;8.754;2023-07-13T12:16:38;28.60;39.50
37910;DHT22;23741;49.446;8.754;2023-07-13T12:18:45;28.70;38.90
37910;DHT22;23741;49.446;8.754;2023-07-13T12:20:51;28.80;39.00
37910;DHT22;23741;49.446;8.754;2023-07-13T12:22:54;28.90;38.20
37910;DHT22;23741;49.446;8.754;2023-07-13T12:24:56;29.10;38.00
37910;DHT22;23741;49.446;8.754;2023-07-13T12:27:01;29.20;38.40
37910;DHT22;23741;49.446;8.754;2023-07-13T12:29:06;29.30;36.90
37910;DHT22;23741;49.446;8.754;2023-07-13T12:31:47;29.40;36.30
37910;DHT22;23741;49.446;8.754;2023-07-13T12:33:48;29.40;36.60
37910;DHT22;23741;49.446;8.754;2023-07-13T12:35:57;29.40;37.00
37910;DHT22;23741;49.446;8.754;2023-07-13T12:38:01;29.40;37.00
37910;DHT22;23741;49.446;8.754;2023-07-13T12:40:04;29.40;37.50
37910;DHT22;23741;49.446;8.754;2023-07-13T12:42:28;29.40;38.00
37910;DHT22;23741;49.446;8.754;2023-07-13T12:44:31;29.40;37.50
37910;DHT22;23741;49.446;8.754;2023-07-13T12:46:33;29.30;37.50
37910;DHT22;23741;49.446;8.754;2023-07-13T12:48:39;29.30;38.00
37910;DHT22;23741;49.446;8.754;2023-07-13T12:50:53;29.30;37.90
37910;DHT22;23741;49.446;8.754;2023-07-13T12:53:05;29.40;38.50
37910;DHT22;23741;49.446;8.754;2023-07-13T12:55:15;29.40;37.10
37910;DHT22;23741;49.446;8.754;2023-07-13T12:57:18;29.50;36.60
37910;DHT22;23741;49.446;8.754;2023-07-13T12:59:22;29.50;36.50
37910;DHT22;23741;49.446;8.754;2023-07-13T13:01:27;29.60;36.10
37910;DHT22;23741;49.446;8.754;2023-07-13T13:05:36;29.60;35.70
37910;DHT22;23741;49.446;8.754;2023-07-13T13:07:39;29.60;35.60
37910;DHT22;23741;49.446;8.754;2023-07-13T13:09:41;29.60;35.50
37910;DHT22;23741;49.446;8.754;2023-07-13T13:11:43;29.60;35.80
37910;DHT22;23741;49.446;8.754;2023-07-13T13:13:45;29.50;35.40
37910;DHT22;23741;49.446;8.754;2023-07-13T13:15:48;29.50;36.20
37910;DHT22;23741;49.446;8.754;2023-07-13T13:17:50;29.50;35.80
37910;DHT22;23741;49.446;8.754;2023-07-13T13:19:52;29.40;36.40
37910;DHT22;23741;49.446;8.754;2023-07-13T13:21:56;29.40;36.50
37910;DHT22;23741;49.446;8.754;2023-07-13T13:23:59;29.40;36.00
37910;DHT22;23741;49.446;8.754;2023-07-13T13:26:02;29.30;36.00
37910;DHT22;23741;49.446;8.754;2023-07-13T13:28:04;29.30;35.70
37910;DHT22;23741;49.446;8.754;2023-07-13T13:30:14;29.20;36.10
37910;DHT22;23741;49.446;8.754;2023-07-13T13:32:16;29.20;36.20
37910;DHT22;23741;49.446;8.754;2023-07-13T13:34:19;29.20;37.20
37910;DHT22;23741;49.446;8.754;2023-07-13T13:36:22;29.10;37.50
37910;DHT22;23741;49.446;8.754;2023-07-13T13:38:26;29.10;36.70
37910;DHT22;23741;49.446;8.754;2023-07-13T13:40:28;29.10;36.10
37910;DHT22;23741;49.446;8.754;2023-07-13T13:42:32;29.10;37.60
37910;DHT22;23741;49.446;8.754;2023-07-13T13:44:35;29.00;37.50